Time;durP1;ratioP1;P1;durP2;ratioP2;P2;SDS_P1;SDS_P2;PMS_P1;PMS_P2;Temp;Humidity;BMP_temperature;BMP_pressure;BME280_temperature;BME280_humidity;BME280_pressure;Samples;Min_cycle;Max_cycle;Signal;HPM_P1;HPM_P2
2022/10/27 00:00:52;;;;;;;5.72;3.00;;;;;;;13.40;87.24;102051.41;5062645;28;20495;-78
2022/10/27 00:03:20;;;;;;;6.18;2.90;;;;;;;13.37;87.21;102054.06;5063413;28;20033;-78
2022/10/27 00:05:47;;;;;;;5.93;3.08;;;;;;;13.33;86.99;102060.22;5065770;28;20036;-78
2022/10/27 00:08:14;;;;;;;6.93;3.03;;;;;;;13.29;87.22;102056.81;5063224;28;20094;-78
2022/10/27 00:10:41;;;;;;;5.13;3.13;;;;;;;13.27;87.56;102058.59;5067264;28;20128;-78
2022/10/27 00:13:06;;;;;;;9.10;3.20;;;;;;;13.23;87.73;102053.44;5066366;28;20029;-78
2022/10/27 00:15:32;;;;;;;5.60;3.08;;;;;;;13.20;87.95;102056.97;5067573;28;20502;-78
2022/10/27 00:17:57;;;;;;;6.47;3.60;;;;;;;13.17;87.56;102057.03;5070176;28;20029;-78
2022/10/27 00:20:22;;;;;;;6.13;3.20;;;;;;;13.15;87.97;102059.66;5067362;28;20040;-78
2022/10/27 00:22:47;;;;;;;6.15;2.80;;;;;;;13.11;88.10;102063.22;5066357;28;20387;-78
2022/10/27 00:25:13;;;;;;;6.47;3.20;;;;;;;13.09;88.21;102054.53;5069698;28;20033;-78
2022/10/27 00:27:38;;;;;;;6.70;3.20;;;;;;;13.08;88.05;102050.22;5071045;28;20080;-78
2022/10/27 00:30:04;;;;;;;7.10;3.28;;;;;;;13.05;88.25;102053.75;5072618;28;20463;-78
2022/10/27 00:32:29;;;;;;;6.25;3.25;;;;;;;13.05;88.18;102053.75;5072817;28;20040;-78
2022/10/27 00:34:54;;;;;;;8.68;3.20;;;;;;;13.03;88.51;102055.50;5073026;28;20039;-78
2022/10/27 00:37:19;;;;;;;4.63;3.10;;;;;;;13.02;88.74;102055.53;5072814;28;20034;-78
2022/10/27 00:39:45;;;;;;;5.50;3.15;;;;;;;13.00;88.49;102055.56;5077019;28;20032;-78
2022/10/27 00:42:13;;;;;;;5.05;2.80;;;;;;;13.01;88.76;102056.41;5069000;28;20035;-78
2022/10/27 00:44:42;;;;;;;6.18;3.13;;;;;;;12.97;88.82;102060.81;5071548;28;20036;-78
2022/10/27 00:47:28;;;;;;;6.60;3.20;;;;;;;12.96;88.54;102063.47;5064395;28;20029;-78
2022/10/27 00:50:02;;;;;;;6.78;3.10;;;;;;;12.95;88.46;102075.66;5071478;28;20035;-78
2022/10/27 00:52:35;;;;;;;5.80;3.15;;;;;;;12.94;88.52;102075.69;5072947;28;20052;-78
2022/10/27 00:55:05;;;;;;;5.05;3.15;;;;;;;12.92;88.91;102072.25;5066922;28;20118;-78
2022/10/27 00:57:32;;;;;;;4.90;2.85;;;;;;;12.89;88.62;102079.22;5065774;28;20030;-78
2022/10/27 01:00:01;;;;;;;6.95;3.03;;;;;;;12.89;88.87;102068.78;5061876;28;20074;-78
2022/10/27 01:02:26;;;;;;;5.05;3.05;;;;;;;12.90;89.25;102075.75;5063491;28;20499;-78
2022/10/27 01:05:17;;;;;;;6.10;3.10;;;;;;;12.90;89.48;102069.63;5095807;28;20041;-78
2022/10/27 01:07:43;;;;;;;6.35;3.03;;;;;;;12.92;89.62;102078.31;5059752;28;20036;-78
2022/10/27 01:10:10;;;;;;;5.18;2.97;;;;;;;12.92;89.62;102074.84;5061370;28;20044;-78
2022/10/27 01:12:36;;;;;;;8.38;3.28;;;;;;;12.95;89.72;102072.19;5062858;28;20036;-78
2022/10/27 01:15:02;;;;;;;5.95;3.47;;;;;;;12.96;90.15;102077.38;5063821;28;20086;-78
2022/10/27 01:17:53;;;;;;;8.02;3.35;;;;;;;12.98;90.35;102077.38;5063149;28;20061;-78
2022/10/27 01:20:30;;;;;;;7.32;2.83;;;;;;;12.98;90.14;102065.16;5062540;28;22263;-78
2022/10/27 01:23:01;;;;;;;6.38;3.20;;;;;;;13.00;90.56;102075.56;5067462;28;20028;-78
2022/10/27 01:26:08;;;;;;;5.90;2.95;;;;;;;13.03;90.64;102083.38;5070760;28;20052;-78
2022/10/27 01:28:41;;;;;;;6.40;2.88;;;;;;;13.04;90.86;102080.75;5060284;28;20038;-78
2022/10/27 01:31:17;;;;;;;5.72;3.03;;;;;;;13.08;91.25;102083.28;5070891;28;20036;-78
2022/10/27 01:33:52;;;;;;;4.90;2.75;;;;;;;13.10;91.46;102085.00;5070420;28;20097;-78
2022/10/27 01:36:25;;;;;;;4.80;2.75;;;;;;;13.12;91.55;102085.84;5064210;28;20031;-78
2022/10/27 01:39:01;;;;;;;6.78;3.08;;;;;;;13.14;91.93;102080.59;5065460;28;20744;-78
2022/10/27 01:41:37;;;;;;;5.60;2.78;;;;;;;13.15;91.92;102080.56;5068493;28;20392;-78
2022/10/27 01:44:09;;;;;;;7.40;3.35;;;;;;;13.17;92.33;102083.16;5060624;28;20173;-78
2022/10/27 01:46:35;;;;;;;6.13;2.85;;;;;;;13.19;92.14;102086.63;5061704;28;20468;-78
2022/10/27 01:49:04;;;;;;;6.30;2.88;;;;;;;13.21;92.15;102090.91;5063074;28;20021;-78
2022/10/27 01:51:29;;;;;;;6.10;2.95;;;;;;;13.21;92.18;102083.06;5062048;28;20024;-78
2022/10/27 01:53:55;;;;;;;5.38;3.08;;;;;;;13.23;92.06;102080.44;5061519;28;20545;-78
2022/10/27 01:56:23;;;;;;;4.75;2.78;;;;;;;13.24;92.07;102086.53;5066966;28;20052;-78
2022/10/27 01:59:26;;;;;;;7.53;3.30;;;;;;;13.25;92.02;102085.63;5059607;28;20040;-78
2022/10/27 02:02:12;;;;;;;5.90;2.70;;;;;;;13.25;91.96;102085.63;5061807;28;20571;-77
2022/10/27 02:05:09;;;;;;;3.60;2.45;;;;;;;13.26;91.72;102088.22;5062154;28;20020;-78
2022/10/27 02:07:37;;;;;;;5.45;2.42;;;;;;;13.27;91.84;102083.88;5062775;28;20094;-78
2022/10/27 02:10:11;;;;;;;4.20;2.47;;;;;;;13.27;91.84;102078.63;5062582;28;20041;-78
2022/10/27 02:12:38;;;;;;;7.30;2.90;;;;;;;13.27;92.05;102074.25;5064308;28;20031;-78
2022/10/27 02:15:13;;;;;;;4.65;2.70;;;;;;;13.28;91.98;102075.13;5065397;28;20525;-78
2022/10/27 02:17:40;;;;;;;5.57;2.70;;;;;;;13.28;91.92;102075.13;5061135;28;20537;-78
2022/10/27 02:20:14;;;;;;;5.97;2.90;;;;;;;13.27;91.91;102076.03;5062117;28;20048;-78
2022/10/27 02:22:42;;;;;;;6.20;2.67;;;;;;;13.27;91.77;102068.19;5058628;28;20507;-78
2022/10/27 02:25:08;;;;;;;7.00;2.60;;;;;;;13.26;91.89;102062.09;5060237;28;20083;-78
2022/10/27 02:27:37;;;;;;;5.43;2.63;;;;;;;13.28;91.77;102064.69;5063107;28;20071;-78
2022/10/27 02:30:03;;;;;;;6.85;2.50;;;;;;;13.27;91.67;102063.81;5063630;28;20483;-78
2022/10/27 02:32:30;;;;;;;8.57;2.80;;;;;;;13.28;91.67;102062.06;5060963;28;20020;-78
2022/10/27 02:34:57;;;;;;;4.05;2.40;;;;;;;13.27;91.69;102053.34;5063102;28;20028;-78
2022/10/27 02:37:40;;;;;;;4.13;2.33;;;;;;;13.27;91.86;102057.72;5063241;28;20491;-78
2022/10/27 02:40:07;;;;;;;4.25;2.50;;;;;;;13.27;91.60;102062.97;5058977;28;20196;-78
2022/10/27 02:42:32;;;;;;;6.05;2.38;;;;;;;13.25;91.56;102055.13;5062666;28;20093;-78
2022/10/27 02:44:57;;;;;;;7.55;2.72;;;;;;;13.24;91.57;102063.84;5058317;28;20025;-78
2022/10/27 02:47:23;;;;;;;5.18;2.50;;;;;;;13.26;91.50;102069.06;5059716;28;20024;-78
2022/10/27 02:49:48;;;;;;;5.28;2.70;;;;;;;13.24;91.21;102057.78;5061032;28;20028;-78
2022/10/27 02:52:14;;;;;;;4.65;2.45;;;;;;;13.22;90.92;102057.81;5061710;28;20366;-78
2022/10/27 02:54:40;;;;;;;4.03;2.33;;;;;;;13.20;91.12;102052.59;5061212;28;20384;-78
2022/10/27 02:57:06;;;;;;;5.50;2.40;;;;;;;13.19;90.90;102053.50;5060319;28;20490;-78
2022/10/27 02:59:31;;;;;;;10.30;3.17;;;;;;;13.17;91.04;102047.41;5061290;28;20040;-78
2022/10/27 03:01:56;;;;;;;6.30;2.85;;;;;;;13.16;90.99;102045.69;5062224;28;20032;-78
2022/10/27 03:04:22;;;;;;;5.30;2.70;;;;;;;13.14;90.65;102044.88;5061817;28;20109;-78
2022/10/27 03:06:47;;;;;;;5.70;2.55;;;;;;;13.13;90.61;102048.38;5060118;28;20032;-78
2022/10/27 03:09:12;;;;;;;3.72;2.72;;;;;;;13.11;90.73;102046.66;5066623;28;20032;-78
2022/10/27 03:11:37;;;;;;;5.57;2.90;;;;;;;13.09;90.92;102049.31;5064709;28;20048;-78
2022/10/27 03:14:03;;;;;;;5.78;3.10;;;;;;;13.08;90.78;102041.50;5063580;28;20044;-78
2022/10/27 03:16:28;;;;;;;7.30;3.53;;;;;;;13.06;90.80;102038.91;5068839;28;20047;-78
2022/10/27 03:18:53;;;;;;;6.20;3.70;;;;;;;13.03;90.61;102038.97;5064908;28;22441;-78
2022/10/27 03:21:18;;;;;;;6.60;3.95;;;;;;;13.02;90.17;102032.00;5064812;28;20036;-78
2022/10/27 03:23:44;;;;;;;8.48;4.03;;;;;;;12.98;90.44;102036.44;5062513;28;20482;-78
2022/10/27 03:26:09;;;;;;;6.82;4.38;;;;;;;12.96;90.34;102026.91;5065936;28;20447;-78
2022/10/27 03:28:35;;;;;;;8.07;4.63;;;;;;;12.94;90.46;102028.69;5063644;28;20035;-78
2022/10/27 03:31:04;;;;;;;8.82;4.25;;;;;;;12.91;90.47;102034.78;5064914;28;20041;-78
2022/10/27 03:33:30;;;;;;;6.40;4.47;;;;;;;12.88;90.69;102029.66;5067378;28;20028;-78
2022/10/27 03:35:55;;;;;;;7.80;4.57;;;;;;;12.86;90.37;102024.44;5071271;28;20391;-78
2022/10/27 03:38:20;;;;;;;9.93;4.78;;;;;;;12.82;90.16;102020.13;5063202;28;20039;-78
2022/10/27 03:40:46;;;;;;;8.27;4.57;;;;;;;12.80;90.21;102029.78;5064664;28;20085;-78
2022/10/27 03:43:11;;;;;;;7.78;5.00;;;;;;;12.77;89.99;102027.22;5068060;28;20032;-78
2022/10/27 03:45:37;;;;;;;10.02;4.85;;;;;;;12.74;90.02;102022.88;5062684;28;20475;-78
2022/10/27 03:48:04;;;;;;;8.30;4.85;;;;;;;12.70;89.81;102026.44;5065981;28;20066;-78
2022/10/27 03:50:30;;;;;;;10.35;5.43;;;;;;;12.66;89.99;102029.97;5063485;28;20029;-78
2022/10/27 03:52:55;;;;;;;9.88;5.55;;;;;;;12.63;90.02;102029.19;5066396;28;20033;-78
2022/10/27 03:55:21;;;;;;;10.48;5.00;;;;;;;12.60;90.79;102025.72;5063092;28;20028;-78
2022/10/27 03:57:47;;;;;;;6.78;4.70;;;;;;;12.60;90.59;102030.06;5071265;28;20029;-78
2022/10/27 04:00:13;;;;;;;8.05;4.82;;;;;;;12.58;90.80;102024.00;5065018;28;20472;-78
2022/10/27 04:02:38;;;;;;;8.02;4.63;;;;;;;12.57;90.50;102023.16;5074274;28;20032;-78
2022/10/27 04:05:04;;;;;;;7.07;4.07;;;;;;;12.55;90.36;102017.09;5068245;28;20388;-78
2022/10/27 04:07:29;;;;;;;11.77;4.43;;;;;;;12.52;90.48;102022.34;5067495;28;20040;-78
2022/10/27 04:09:54;;;;;;;7.22;4.20;;;;;;;12.50;90.49;102015.44;5068846;28;20111;-78
2022/10/27 04:12:20;;;;;;;7.28;4.45;;;;;;;12.48;90.21;102015.44;5067357;28;20562;-78
2022/10/27 04:14:45;;;;;;;8.07;4.10;;;;;;;12.46;90.43;102017.25;5071610;28;20031;-78
2022/10/27 04:17:10;;;;;;;6.28;3.80;;;;;;;12.45;90.44;102018.13;5068991;28;20036;-78
2022/10/27 04:19:35;;;;;;;5.70;3.58;;;;;;;12.45;90.65;102020.72;5070774;28;20032;-78
2022/10/27 04:22:01;;;;;;;6.78;3.40;;;;;;;12.44;90.67;102021.63;5076971;28;20024;-78
2022/10/27 04:24:26;;;;;;;5.88;2.90;;;;;;;12.43;90.91;102019.88;5069693;28;20655;-78
2022/10/27 04:26:51;;;;;;;5.88;3.03;;;;;;;12.42;90.76;102032.06;5075789;28;20075;-78
2022/10/27 04:29:16;;;;;;;5.43;2.95;;;;;;;12.40;90.68;102030.38;5074440;28;20028;-77
2022/10/27 04:31:42;;;;;;;5.43;2.53;;;;;;;12.39;90.75;102037.31;5072260;28;20025;-78
2022/10/27 04:34:07;;;;;;;5.07;2.75;;;;;;;12.38;90.76;102030.38;5070820;28;20024;-78
2022/10/27 04:36:32;;;;;;;6.03;2.53;;;;;;;12.37;90.67;102036.50;5068475;28;20035;-78
2022/10/27 04:38:58;;;;;;;4.90;2.70;;;;;;;12.36;90.41;102036.50;5069940;28;20028;-78
2022/10/27 04:41:23;;;;;;;6.65;2.80;;;;;;;12.33;90.42;102036.53;5073809;28;20025;-78
2022/10/27 04:43:49;;;;;;;3.63;2.47;;;;;;;12.30;90.75;102040.91;5065708;28;20034;-78
2022/10/27 04:46:15;;;;;;;5.40;2.67;;;;;;;12.30;90.73;102043.53;5068012;28;20020;-78
2022/10/27 04:48:40;;;;;;;5.53;2.47;;;;;;;12.29;90.63;102046.16;5065605;28;20033;-78
2022/10/27 04:51:05;;;;;;;5.70;2.65;;;;;;;12.27;90.76;102048.81;5072441;28;20035;-78
2022/10/27 04:53:31;;;;;;;4.65;2.50;;;;;;;12.25;90.90;102045.34;5073261;28;20088;-78
2022/10/27 04:55:56;;;;;;;4.88;2.63;;;;;;;12.25;90.63;102047.97;5074813;28;20032;-78
2022/10/27 04:58:21;;;;;;;4.25;2.50;;;;;;;12.22;90.58;102040.19;5073601;28;20391;-78
2022/10/27 05:00:47;;;;;;;5.63;2.65;;;;;;;12.21;90.25;102048.03;5073707;28;20031;-78
2022/10/27 05:03:13;;;;;;;5.97;2.72;;;;;;;12.19;90.26;102055.84;5074221;28;20025;-78
2022/10/27 05:05:38;;;;;;;6.68;2.53;;;;;;;12.17;89.91;102049.78;5074299;28;20027;-78
2022/10/27 05:08:04;;;;;;;10.13;3.05;;;;;;;12.14;89.79;102053.31;5072746;28;20100;-78
2022/10/27 05:10:32;;;;;;;4.65;2.60;;;;;;;12.11;89.33;102047.28;5073908;28;20067;-78
2022/10/27 05:12:57;;;;;;;6.20;3.00;;;;;;;12.07;89.48;102040.38;5072655;28;20029;-78
2022/10/27 05:15:23;;;;;;;5.25;2.78;;;;;;;12.05;89.21;102047.34;5068721;28;20039;-78
2022/10/27 05:17:48;;;;;;;7.00;2.92;;;;;;;12.02;89.77;102037.84;5069130;28;20059;-78
2022/10/27 05:20:14;;;;;;;7.47;3.15;;;;;;;12.02;89.85;102042.16;5064600;28;20427;-78
2022/10/27 05:22:39;;;;;;;6.72;2.90;;;;;;;11.99;89.83;102043.94;5066568;28;20024;-78
2022/10/27 05:25:06;;;;;;;5.30;2.75;;;;;;;11.97;89.36;102040.44;5066253;28;20043;-78
2022/10/27 05:27:32;;;;;;;6.38;3.00;;;;;;;11.98;89.76;102042.19;5066170;28;20502;-78
2022/10/27 05:29:57;;;;;;;7.30;3.40;;;;;;;11.98;89.60;102047.41;5072814;28;20024;-78
2022/10/27 05:32:23;;;;;;;8.27;2.97;;;;;;;11.96;89.79;102043.94;5069819;28;20025;-78
2022/10/27 05:34:48;;;;;;;7.05;3.38;;;;;;;11.96;89.84;102043.94;5064959;28;20111;-78
2022/10/27 05:37:14;;;;;;;5.25;3.25;;;;;;;11.96;89.73;102033.50;5065685;28;20106;-78
2022/10/27 05:39:39;;;;;;;6.55;3.70;;;;;;;11.95;89.94;102038.75;5068331;28;20054;-78
2022/10/27 05:42:04;;;;;;;7.50;3.40;;;;;;;11.96;90.09;102043.94;5065127;28;20031;-78
2022/10/27 05:44:29;;;;;;;6.65;3.42;;;;;;;11.96;90.33;102038.72;5064539;28;20060;-78
2022/10/27 05:46:55;;;;;;;7.18;3.08;;;;;;;11.96;90.58;102033.50;5065991;28;20029;-78
2022/10/27 05:49:20;;;;;;;7.93;3.10;;;;;;;11.99;90.94;102041.31;5065344;28;20025;-78
2022/10/27 05:51:48;;;;;;;6.28;2.85;;;;;;;12.01;90.59;102041.31;5064557;28;20021;-78
2022/10/27 05:54:14;;;;;;;6.90;2.70;;;;;;;12.02;90.84;102035.22;5064135;28;20031;-78
2022/10/27 05:56:39;;;;;;;6.50;3.00;;;;;;;12.03;90.76;102034.34;5064809;28;20028;-78
2022/10/27 05:59:04;;;;;;;6.18;2.88;;;;;;;12.05;90.68;102032.56;5094986;28;20070;-78
2022/10/27 06:01:30;;;;;;;5.05;2.78;;;;;;;12.05;90.91;102036.91;5065217;28;20055;-78
2022/10/27 06:03:55;;;;;;;6.15;2.60;;;;;;;12.06;90.99;102036.03;5067136;28;20434;-78
2022/10/27 06:06:20;;;;;;;4.10;2.45;;;;;;;12.07;90.82;102027.34;5069318;28;20472;-78
2022/10/27 06:08:45;;;;;;;5.18;2.33;;;;;;;12.08;91.06;102026.44;5070731;28;20025;-78
2022/10/27 06:11:10;;;;;;;3.92;2.20;;;;;;;12.10;90.89;102027.28;5069767;28;20055;-78
2022/10/27 06:13:36;;;;;;;7.43;2.72;;;;;;;12.10;91.08;102019.47;5064406;28;20036;-78
2022/10/27 06:16:01;;;;;;;6.15;2.50;;;;;;;12.11;90.98;102014.22;5066306;28;20039;-78
2022/10/27 06:18:26;;;;;;;4.35;2.47;;;;;;;12.13;90.96;102014.19;5067805;28;20028;-78
2022/10/27 06:20:52;;;;;;;6.00;2.50;;;;;;;12.15;90.92;102012.44;5069482;28;20066;-78
2022/10/27 06:23:17;;;;;;;5.85;2.60;;;;;;;12.17;90.77;102015.88;5062829;28;20039;-78
2022/10/27 06:25:42;;;;;;;6.10;2.75;;;;;;;12.17;90.63;102021.09;5075073;28;20431;-78
2022/10/27 06:28:08;;;;;;;5.78;2.67;;;;;;;12.17;90.64;102015.88;5065607;28;20067;-78
2022/10/27 06:30:34;;;;;;;4.22;2.67;;;;;;;12.18;90.48;102011.53;5064675;28;20032;-78
2022/10/27 06:32:59;;;;;;;5.00;2.58;;;;;;;12.19;90.73;102008.91;5068277;28;20036;-78
2022/10/27 06:35:24;;;;;;;4.68;2.58;;;;;;;12.22;90.71;102016.69;5067107;28;20395;-78
2022/10/27 06:37:49;;;;;;;4.53;2.53;;;;;;;12.23;90.86;102021.03;5065110;28;20036;-78
2022/10/27 06:40:17;;;;;;;4.95;2.38;;;;;;;12.25;90.61;102019.25;5066899;28;20468;-78
2022/10/27 06:42:44;;;;;;;5.28;2.45;;;;;;;12.29;90.61;102009.63;5061987;28;20377;-78
2022/10/27 06:45:09;;;;;;;5.70;2.50;;;;;;;12.30;90.36;102017.44;5071583;28;20024;-78
2022/10/27 06:47:35;;;;;;;4.55;2.47;;;;;;;12.32;90.37;102013.94;5072490;28;20028;-78
2022/10/27 06:50:00;;;;;;;4.72;2.28;;;;;;;12.32;90.07;102008.72;5064003;28;20518;-78
2022/10/27 06:52:26;;;;;;;8.05;2.55;;;;;;;12.32;89.98;102006.13;5065647;28;20032;-78
2022/10/27 06:54:52;;;;;;;5.60;2.70;;;;;;;12.32;90.20;102012.22;5066086;28;20024;-78
2022/10/27 06:57:17;;;;;;;5.32;2.35;;;;;;;12.32;89.73;102000.88;5064981;28;20025;-78
2022/10/27 06:59:43;;;;;;;4.85;2.47;;;;;;;12.32;89.80;102001.78;5063309;28;20116;-78
2022/10/27 07:02:13;;;;;;;5.03;2.42;;;;;;;12.33;89.93;102007.84;5067413;28;20116;-78
2022/10/27 07:04:39;;;;;;;4.68;2.10;;;;;;;12.33;89.98;102003.50;5064588;28;20017;-78
2022/10/27 07:07:04;;;;;;;6.72;2.40;;;;;;;12.35;89.95;102000.84;5063334;28;20051;-77
2022/10/27 07:09:29;;;;;;;6.00;2.72;;;;;;;12.38;90.20;102000.81;5080581;28;20024;-78
2022/10/27 07:11:55;;;;;;;7.20;2.40;;;;;;;12.40;89.64;101996.44;5064446;28;20049;-78
2022/10/27 07:14:20;;;;;;;5.22;2.63;;;;;;;12.40;89.28;101994.69;5066304;28;20043;-78
2022/10/27 07:16:45;;;;;;;3.10;2.00;;;;;;;12.42;89.61;101992.91;5068803;28;20029;-78
2022/10/27 07:19:11;;;;;;;7.78;2.55;;;;;;;12.44;89.39;101996.38;5075677;28;20032;-78
2022/10/27 07:21:36;;;;;;;5.70;2.72;;;;;;;12.46;89.45;101998.97;5067119;28;20036;-78
2022/10/27 07:24:01;;;;;;;7.63;2.70;;;;;;;12.48;89.37;101999.78;5069878;28;20032;-78
2022/10/27 07:26:27;;;;;;;4.55;2.72;;;;;;;12.50;89.50;101999.78;5072998;28;20486;-78
2022/10/27 07:28:52;;;;;;;5.80;2.55;;;;;;;12.52;89.53;102004.06;5071284;28;20130;-78
2022/10/27 07:31:17;;;;;;;4.60;2.60;;;;;;;12.55;89.46;102009.25;5068327;28;20028;-78
2022/10/27 07:33:42;;;;;;;7.35;2.60;;;;;;;12.58;89.39;102006.59;5076720;28;20051;-78
2022/10/27 07:36:08;;;;;;;8.60;2.83;;;;;;;12.59;89.50;102010.94;5074340;28;20036;-78
2022/10/27 07:38:34;;;;;;;4.95;2.70;;;;;;;12.63;89.36;102008.28;5073485;28;20032;-78
2022/10/27 07:40:59;;;;;;;4.85;2.35;;;;;;;12.65;89.43;102002.16;5072425;28;20488;-78
2022/10/27 07:43:24;;;;;;;5.28;2.60;;;;;;;12.68;89.25;101996.88;5073514;28;20487;-78
2022/10/27 07:45:49;;;;;;;4.70;2.15;;;;;;;12.71;89.01;101998.56;5072337;28;20032;-78
2022/10/27 07:48:15;;;;;;;5.78;2.47;;;;;;;12.77;88.78;102006.31;5070545;28;20464;-78
2022/10/27 07:50:42;;;;;;;5.68;2.17;;;;;;;12.83;88.74;102000.97;5066933;28;20028;-78
2022/10/27 07:53:08;;;;;;;9.35;2.55;;;;;;;12.89;88.46;102003.50;5067953;28;20121;-78
2022/10/27 07:55:35;;;;;;;5.60;2.58;;;;;;;12.96;88.30;102001.63;5066907;28;20052;-78
2022/10/27 07:58:08;;;;;;;5.72;2.42;;;;;;;13.04;88.15;101998.88;5067616;28;20231;-78
2022/10/27 08:00:36;;;;;;;6.72;2.42;;;;;;;13.11;88.21;102005.75;5065827;28;20071;-78
2022/10/27 08:03:02;;;;;;;5.07;2.50;;;;;;;13.18;87.70;102006.50;5067651;28;20305;-78
2022/10/27 08:05:28;;;;;;;6.45;2.50;;;;;;;13.26;87.41;102004.59;5066226;28;20020;-78
2022/10/27 08:08:02;;;;;;;5.47;2.20;;;;;;;13.33;87.15;102002.72;5067439;28;20024;-78
2022/10/27 08:10:28;;;;;;;8.13;2.58;;;;;;;13.39;87.10;102002.63;5063574;28;20040;-78
2022/10/27 08:12:54;;;;;;;4.80;2.35;;;;;;;13.43;87.05;102006.94;5065097;28;20043;-78
2022/10/27 08:15:19;;;;;;;3.10;2.00;;;;;;;13.49;86.75;102004.19;5069543;28;20036;-78
2022/10/27 08:17:50;;;;;;;4.15;2.00;;;;;;;13.54;86.16;102008.47;5064877;28;20089;-78
2022/10/27 08:20:15;;;;;;;6.60;2.43;;;;;;;13.57;86.21;102006.69;5065327;28;20032;-78
2022/10/27 08:22:40;;;;;;;6.60;2.28;;;;;;;13.62;85.79;102004.81;5066221;28;20298;-78
2022/10/27 08:25:06;;;;;;;4.47;2.05;;;;;;;13.65;85.67;102007.38;5063998;28;20032;-78
2022/10/27 08:27:32;;;;;;;4.30;2.10;;;;;;;13.68;85.58;102001.22;5064584;28;20036;-78
2022/10/27 08:29:57;;;;;;;5.95;2.25;;;;;;;13.72;85.25;102004.66;5064368;28;20033;-78
2022/10/27 08:32:23;;;;;;;7.00;2.50;;;;;;;13.74;85.09;102005.47;5064145;28;20028;-78
2022/10/27 08:34:48;;;;;;;4.85;2.05;;;;;;;13.78;85.03;101997.53;5066036;28;20101;-78
2022/10/27 08:37:13;;;;;;;4.35;2.03;;;;;;;13.79;85.35;101988.78;5068663;28;20044;-78
2022/10/27 08:39:38;;;;;;;4.50;2.10;;;;;;;13.84;84.42;101982.59;5065836;28;20089;-78
2022/10/27 08:42:28;;;;;;;7.32;2.00;;;;;;;13.89;84.13;101988.59;5065535;28;20047;-78
2022/10/27 08:45:19;;;;;;;4.53;2.00;;;;;;;13.95;84.57;101981.47;5062792;28;20147;-78
2022/10/27 08:47:46;;;;;;;4.38;1.80;;;;;;;14.00;84.15;101981.38;5061801;28;20131;-78
2022/10/27 08:50:18;;;;;;;4.97;2.00;;;;;;;14.07;83.32;101982.97;5066805;28;20418;-78
2022/10/27 08:52:59;;;;;;;5.45;1.88;;;;;;;14.18;84.01;101984.47;5067105;28;20376;-78
2022/10/27 08:55:28;;;;;;;5.40;2.00;;;;;;;14.26;83.75;101977.31;5064511;28;20029;-78
2022/10/27 08:58:16;;;;;;;4.95;2.28;;;;;;;14.37;84.62;101975.28;5062246;28;20050;-78
2022/10/27 09:01:01;;;;;;;5.60;1.77;;;;;;;14.49;83.91;101978.53;5094876;28;20092;-78
2022/10/27 09:03:41;;;;;;;6.15;2.00;;;;;;;14.58;82.99;101978.31;5064760;28;20024;-78
2022/10/27 09:06:20;;;;;;;4.70;1.77;;;;;;;14.67;82.67;101971.97;5065683;28;20031;-78
2022/10/27 09:09:04;;;;;;;5.47;1.88;;;;;;;14.76;81.64;101977.03;5074026;28;20101;-78
2022/10/27 09:11:54;;;;;;;5.00;1.90;;;;;;;14.84;82.35;101963.75;5063707;28;20052;-78
2022/10/27 09:14:32;;;;;;;2.63;1.70;;;;;;;14.92;80.82;101963.53;5064433;28;20032;-78
2022/10/27 09:17:10;;;;;;;6.90;1.50;;;;;;;15.00;81.64;101951.97;5063805;28;20846;-77
2022/10/27 09:19:43;;;;;;;3.17;1.40;;;;;;;15.08;80.71;101945.63;5070267;28;20395;-77
2022/10/27 09:22:18;;;;;;;4.03;1.55;;;;;;;15.15;80.44;101941.97;5068485;28;20067;-77
2022/10/27 09:24:50;;;;;;;3.53;1.65;;;;;;;15.21;79.57;101947.00;5065718;28;20023;-77
2022/10/27 09:27:15;;;;;;;2.58;1.40;;;;;;;15.27;78.81;101930.28;5067628;28;20031;-78
2022/10/27 09:29:41;;;;;;;3.58;1.70;;;;;;;15.33;79.21;101925.72;5066373;28;20032;-77
2022/10/27 09:32:19;;;;;;;2.38;1.33;;;;;;;15.44;79.43;101933.28;5064571;28;20078;-78
2022/10/27 09:34:53;;;;;;;3.40;1.45;;;;;;;15.51;78.35;101926.09;5069694;28;20205;-78
2022/10/27 09:37:20;;;;;;;3.45;1.30;;;;;;;15.60;77.60;101938.94;5068361;28;20043;-78
2022/10/27 09:39:51;;;;;;;3.38;1.10;;;;;;;15.68;78.12;101935.22;5072856;28;20073;-78
2022/10/27 09:42:17;;;;;;;2.97;1.10;;;;;;;15.75;77.07;101931.50;5081996;28;20024;-77
2022/10/27 09:44:49;;;;;;;4.63;1.00;;;;;;;15.83;77.12;101932.16;5077269;28;20055;-78
2022/10/27 09:47:14;;;;;;;2.60;0.88;;;;;;;15.90;77.39;101924.97;5080276;28;20518;-78
2022/10/27 09:49:44;;;;;;;2.38;1.00;;;;;;;15.96;77.27;101919.53;5074449;28;20476;-78
2022/10/27 09:52:18;;;;;;;2.22;1.08;;;;;;;16.01;76.78;101917.63;5079913;28;20379;-78
2022/10/27 09:54:52;;;;;;;2.55;0.93;;;;;;;16.07;77.05;101916.56;5075839;28;20121;-78
2022/10/27 09:57:19;;;;;;;2.80;1.20;;;;;;;16.11;75.71;101912.09;5071689;28;20756;-78
2022/10/27 09:59:56;;;;;;;2.65;1.20;;;;;;;16.14;76.04;101912.84;5065395;28;20497;-78
2022/10/27 10:02:31;;;;;;;2.38;1.17;;;;;;;16.17;76.01;101912.75;5076490;28;20036;-78
2022/10/27 10:04:59;;;;;;;5.13;0.93;;;;;;;16.22;76.36;101907.34;5075280;28;20028;-76
2022/10/27 10:07:37;;;;;;;3.10;0.90;;;;;;;16.28;75.12;101899.28;5075165;28;20544;-78
2022/10/27 10:10:23;;;;;;;4.00;1.00;;;;;;;16.38;75.87;101908.56;5071039;28;20027;-78
2022/10/27 10:13:00;;;;;;;2.50;0.90;;;;;;;16.47;76.02;101903.91;5071156;28;20149;-77
2022/10/27 10:15:26;;;;;;;2.30;1.00;;;;;;;16.56;74.58;101908.00;5071854;28;20029;-78
2022/10/27 10:17:58;;;;;;;2.63;1.00;;;;;;;16.63;73.78;101917.38;5074245;28;20047;-78
2022/10/27 10:20:31;;;;;;;;;;;;;;;16.71;76.74;101907.47;5068160;28;20103;-78
2022/10/27 10:22:57;;;;;;;4.28;1.00;;;;;;;16.77;73.13;101899.34;5069655;28;20271;-78
2022/10/27 10:25:26;;;;;;;2.28;0.88;;;;;;;16.83;73.54;101901.78;5068036;28;20039;-78
2022/10/27 10:27:57;;;;;;;4.25;1.02;;;;;;;16.90;73.29;101896.31;5066544;28;20217;-77
2022/10/27 10:30:23;;;;;;;2.70;0.82;;;;;;;16.95;71.70;101895.28;5068146;28;20082;-78
2022/10/27 10:32:52;;;;;;;2.78;0.75;;;;;;;17.02;71.23;101897.66;5073418;28;20032;-78
2022/10/27 10:35:43;;;;;;;5.60;0.93;;;;;;;17.07;73.16;101893.97;5070346;28;20072;-78
2022/10/27 10:38:23;;;;;;;2.75;0.98;;;;;;;17.14;72.78;101884.09;5085372;28;20028;-78
2022/10/27 10:40:54;;;;;;;2.33;0.80;;;;;;;17.19;71.51;101881.28;5071647;28;20036;-78
2022/10/27 10:43:19;;;;;;;3.72;0.93;;;;;;;17.22;70.81;101881.19;5071221;28;20031;-78
2022/10/27 10:45:51;;;;;;;3.53;0.68;;;;;;;17.29;71.11;101887.91;5073472;28;20021;-78
2022/10/27 10:48:27;;;;;;;3.67;0.98;;;;;;;17.34;71.87;101895.63;5075481;28;20058;-78
2022/10/27 10:50:52;;;;;;;3.53;0.80;;;;;;;17.36;70.95;101889.41;5077194;28;20365;-78
2022/10/27 10:53:25;;;;;;;2.92;0.93;;;;;;;17.40;70.59;101880.50;5063891;28;20039;-78
2022/10/27 10:55:53;;;;;;;4.90;0.82;;;;;;;17.44;70.15;101879.44;5080465;28;20027;-78
2022/10/27 10:58:21;;;;;;;2.78;1.10;;;;;;;17.50;70.42;101872.22;5073136;28;20085;-78
2022/10/27 11:00:58;;;;;;;2.80;0.70;;;;;;;17.55;71.27;101868.50;5070531;28;20033;-78
2022/10/27 11:03:26;;;;;;;2.63;0.80;;;;;;;17.61;69.72;101867.41;5069878;28;20119;-78
2022/10/27 11:05:55;;;;;;;3.35;1.23;;;;;;;17.68;71.09;101874.16;5074502;28;20066;-78
2022/10/27 11:08:23;;;;;;;2.38;0.75;;;;;;;17.72;70.22;101859.97;5072500;28;20070;-78
2022/10/27 11:10:51;;;;;;;3.35;1.00;;;;;;;17.75;70.23;101856.34;5073743;28;20048;-78
2022/10/27 11:13:19;;;;;;;3.15;0.88;;;;;;;17.78;70.35;101860.63;5078839;28;20020;-78
2022/10/27 11:15:55;;;;;;;2.95;0.88;;;;;;;17.82;70.66;101859.56;5082934;28;20045;-79
2022/10/27 11:18:25;;;;;;;3.10;0.90;;;;;;;17.86;69.75;101861.19;5075640;28;20062;-78
2022/10/27 11:21:16;;;;;;;2.42;0.80;;;;;;;17.92;70.47;101860.94;5081485;28;20103;-78
2022/10/27 11:23:53;;;;;;;2.03;0.87;;;;;;;17.98;70.13;101867.75;5065433;28;20132;-78
2022/10/27 11:26:26;;;;;;;2.53;0.80;;;;;;;18.04;68.68;101864.84;5074468;28;20025;-78
2022/10/27 11:29:08;;;;;;;4.30;1.00;;;;;;;18.09;69.40;101869.97;5066825;28;20078;-78
2022/10/27 11:31:40;;;;;;;4.30;0.80;;;;;;;18.10;69.62;101863.78;5055090;28;20123;-78